createdAt,value
2023-02-02T00:02:04.598Z,101018.63
2023-02-02T00:04:39.897Z,101025.09
2023-02-02T00:07:10.185Z,101011.59
2023-02-02T00:09:40.239Z,101005.25
2023-02-02T00:12:10.428Z,101009.41
2023-02-02T00:14:41.069Z,101000.16
2023-02-02T00:17:13.662Z,101006.28
2023-02-02T00:19:46.910Z,101001.44
2023-02-02T00:22:17.389Z,100980.22
2023-02-02T00:24:47.605Z,100987.47
2023-02-02T00:27:17.863Z,100963.56
2023-02-02T00:29:48.209Z,100983.75
2023-02-02T00:32:18.351Z,100988.66
2023-02-02T00:34:51.373Z,100954.41
2023-02-02T00:37:21.624Z,100979.19
2023-02-02T00:39:52.027Z,100974.91
2023-02-02T00:42:22.002Z,100970.63
2023-02-02T00:45:04.427Z,100975.72
2023-02-02T00:47:34.498Z,100931.22
2023-02-02T00:50:08.018Z,100976.38
2023-02-02T00:52:38.181Z,100966.22
2023-02-02T00:55:11.972Z,100951.97
2023-02-02T00:57:44.463Z,100971.94
2023-02-02T01:00:17.644Z,100954.47
2023-02-02T01:02:48.702Z,100913.47
2023-02-02T01:05:23.564Z,100947.75
2023-02-02T01:07:53.860Z,100954.56
2023-02-02T01:10:23.949Z,100944.38
2023-02-02T01:12:54.268Z,100955.38
2023-02-02T01:15:24.612Z,100919.66
2023-02-02T01:17:54.891Z,100959.06
2023-02-02T01:20:28.027Z,100962.28
2023-02-02T01:22:58.055Z,100956.59
2023-02-02T01:25:28.106Z,100954.84
2023-02-02T01:27:58.524Z,100907.94
2023-02-02T01:30:29.728Z,100947.34
2023-02-02T01:33:00.106Z,100949.84
2023-02-02T01:35:33.627Z,100935.22
2023-02-02T01:38:04.054Z,100939.88
2023-02-02T01:40:34.082Z,100927.03
2023-02-02T01:43:04.302Z,100936.41
2023-02-02T01:45:34.518Z,100925.63
2023-02-02T01:48:05.297Z,100919.13
2023-02-02T01:50:38.620Z,100874.44
2023-02-02T01:53:11.270Z,100903.41
2023-02-02T01:55:44.079Z,100903.19
2023-02-02T01:58:18.351Z,100908.88
2023-02-02T02:00:48.742Z,100903.34
2023-02-02T02:03:22.541Z,100899.72
2023-02-02T02:05:59.315Z,100891.56
2023-02-02T02:08:33.143Z,100855.19
2023-02-02T02:11:03.269Z,100889.03
2023-02-02T02:13:50.543Z,100881.19
2023-02-02T02:16:30.453Z,100872.28
2023-02-02T02:19:13.977Z,100893.81
2023-02-02T02:22:20.350Z,100884.34
2023-02-02T02:25:41.430Z,100869.09
2023-02-02T02:28:41.428Z,100865.56
2023-02-02T02:31:38.292Z,100858.00
2023-02-02T02:34:15.515Z,100863.66
2023-02-02T02:36:52.526Z,100842.19
2023-02-02T02:39:28.643Z,100848.53
2023-02-02T02:42:03.517Z,100858.97
2023-02-02T02:44:36.884Z,100862.19
2023-02-02T02:47:07.497Z,100862.19
2023-02-02T02:49:45.261Z,100843.38
2023-02-02T02:52:16.136Z,100842.94
2023-02-02T02:54:52.692Z,100849.13
2023-02-02T02:57:41.802Z,100863.34
2023-02-02T03:00:25.150Z,100877.25
2023-02-02T03:03:06.220Z,100877.09
2023-02-02T03:05:51.148Z,100880.78
2023-02-02T03:08:27.879Z,100871.78
2023-02-02T03:11:02.470Z,100862.91
2023-02-02T03:13:34.436Z,100860.84
2023-02-02T03:16:04.839Z,100871.25
2023-02-02T03:18:36.284Z,100865.72
2023-02-02T03:21:09.521Z,100856.72
2023-02-02T03:23:39.605Z,100848.88
2023-02-02T03:26:10.512Z,100847.25
2023-02-02T03:28:40.416Z,100842.53
2023-02-02T03:31:11.018Z,100812.91
2023-02-02T03:33:41.917Z,100839.44
2023-02-02T03:36:14.885Z,100817.59
2023-02-02T03:38:44.957Z,100778.97
2023-02-02T03:41:15.389Z,100804.91
2023-02-02T03:43:50.179Z,100804.31
2023-02-02T03:46:20.285Z,100786.84
2023-02-02T03:48:50.378Z,100798.78
2023-02-02T03:51:23.434Z,100794.94
2023-02-02T03:53:53.467Z,100799.91
2023-02-02T03:56:23.815Z,100792.97
2023-02-02T03:58:53.830Z,100791.78
2023-02-02T04:01:30.732Z,100779.41
2023-02-02T04:04:01.675Z,100785.66
2023-02-02T04:06:34.270Z,100801.25
2023-02-02T04:09:04.550Z,100792.31
2023-02-02T04:11:34.990Z,100802.13
2023-02-02T04:14:05.099Z,100803.41
2023-02-02T04:16:37.815Z,100790.94
2023-02-02T04:19:08.729Z,100770.78
2023-02-02T04:21:41.563Z,100811.88
2023-02-02T04:24:15.295Z,100812.78
2023-02-02T04:26:46.155Z,100810.13
2023-02-02T04:29:16.380Z,100808.97
2023-02-02T04:31:46.718Z,100804.38
2023-02-02T04:34:16.812Z,100762.06
2023-02-02T04:36:49.521Z,100801.00
2023-02-02T04:39:19.837Z,100807.63
2023-02-02T04:41:49.914Z,100800.69
2023-02-02T04:44:19.889Z,100808.50
2023-02-02T04:46:49.937Z,100802.84
2023-02-02T04:49:20.177Z,100810.84
2023-02-02T04:51:53.346Z,100814.69
2023-02-02T04:54:23.432Z,100813.50
2023-02-02T04:56:54.725Z,100782.09
2023-02-02T04:59:24.868Z,100802.53
2023-02-02T05:01:54.994Z,100812.94
2023-02-02T05:04:25.057Z,100806.56
2023-02-02T05:06:57.705Z,100810.03
2023-02-02T05:09:28.352Z,100815.50
2023-02-02T05:11:58.468Z,100798.03
2023-02-02T05:14:28.754Z,100811.75
2023-02-02T05:16:58.872Z,100811.38
2023-02-02T05:19:30.160Z,100823.38
2023-02-02T05:22:02.948Z,100834.59
2023-02-02T05:24:33.027Z,100815.84
2023-02-02T05:27:03.573Z,100830.22
2023-02-02T05:29:34.342Z,100820.50
2023-02-02T05:32:04.520Z,100823.53
2023-02-02T05:34:34.825Z,100839.88
2023-02-02T05:37:08.093Z,100841.94
2023-02-02T05:39:38.150Z,100842.97
2023-02-02T05:42:08.351Z,100850.28
2023-02-02T05:44:38.497Z,100824.09
2023-02-02T05:47:09.563Z,100844.88
2023-02-02T05:49:40.041Z,100855.53
2023-02-02T05:52:18.585Z,100843.72
2023-02-02T05:54:48.799Z,100844.59
2023-02-02T05:57:19.096Z,100855.34
2023-02-02T05:59:49.106Z,100856.34
2023-02-02T06:02:19.205Z,100860.28
2023-02-02T06:04:49.448Z,100861.66
2023-02-02T06:07:22.086Z,100858.06
2023-02-02T06:09:52.137Z,100872.88
2023-02-02T06:12:22.484Z,100864.94
2023-02-02T06:14:52.658Z,100856.28
2023-02-02T06:17:23.230Z,100853.34
2023-02-02T06:19:54.019Z,100864.59
2023-02-02T06:22:27.041Z,100862.47
2023-02-02T06:24:57.482Z,100867.06
2023-02-02T06:27:28.243Z,100833.94
2023-02-02T06:29:58.318Z,100863.28
2023-02-02T06:32:28.721Z,100877.03
2023-02-02T06:34:58.884Z,100888.13
2023-02-02T06:37:31.736Z,100904.03
2023-02-02T06:40:01.920Z,100910.91
2023-02-02T06:42:32.279Z,100926.06
2023-02-02T06:45:02.329Z,100901.50
2023-02-02T06:47:32.595Z,100925.06
2023-02-02T06:50:02.815Z,100926.66
2023-02-02T06:52:35.711Z,100924.00
2023-02-02T06:55:06.708Z,100897.81
2023-02-02T06:57:36.570Z,100939.19
2023-02-02T07:00:07.396Z,100947.69
2023-02-02T07:02:37.322Z,100941.13
2023-02-02T07:05:08.031Z,100929.84
2023-02-02T07:07:40.892Z,100972.84
2023-02-02T07:11:12.704Z,100968.81
2023-02-02T07:13:02.175Z,100967.09
2023-02-02T07:15:35.722Z,100975.66
2023-02-02T07:18:06.158Z,100948.53
2023-02-02T07:20:38.968Z,100962.22
2023-02-02T07:23:11.708Z,100975.91
2023-02-02T07:25:43.582Z,100993.66
2023-02-02T07:28:14.089Z,101006.22
2023-02-02T07:30:44.250Z,101020.03
2023-02-02T07:33:14.339Z,101032.34
2023-02-02T07:35:44.596Z,101007.53
2023-02-02T07:38:17.997Z,101001.56
2023-02-02T07:40:49.059Z,101006.34
2023-02-02T07:43:19.512Z,101017.19
2023-02-02T07:45:49.970Z,100995.47
2023-02-02T07:48:20.178Z,100999.09
2023-02-02T07:50:50.522Z,101033.13
2023-02-02T07:53:23.663Z,101030.66
2023-02-02T07:55:53.682Z,101010.47
2023-02-02T07:58:23.758Z,101029.66
2023-02-02T08:00:53.858Z,101031.22
2023-02-02T08:03:23.899Z,101027.31
2023-02-02T08:05:54.060Z,101024.44
2023-02-02T08:08:26.760Z,101032.75
2023-02-02T08:10:57.737Z,101028.16
2023-02-02T08:13:27.558Z,101024.09
2023-02-02T08:16:00.877Z,101007.69
2023-02-02T08:18:30.962Z,101032.63
2023-02-02T08:21:02.360Z,101001.72
2023-02-02T08:23:36.760Z,101026.97
2023-02-02T08:26:12.961Z,101009.47
2023-02-02T08:28:44.184Z,101012.59
2023-02-02T08:31:17.505Z,100993.88
2023-02-02T08:33:48.127Z,100993.06
2023-02-02T08:36:19.836Z,100969.31
2023-02-02T08:38:53.707Z,100965.25
2023-02-02T08:41:27.193Z,100966.28
2023-02-02T08:43:57.258Z,100943.03
2023-02-02T08:46:28.225Z,100968.09
2023-02-02T08:48:58.012Z,100976.91
2023-02-02T08:51:28.400Z,100974.53
2023-02-02T08:54:01.074Z,100980.81
2023-02-02T08:56:31.164Z,100980.94
2023-02-02T08:59:03.279Z,100973.88
2023-02-02T09:01:34.651Z,100994.38
2023-02-02T09:04:07.016Z,101006.66
2023-02-02T09:06:38.880Z,101001.63
2023-02-02T09:09:13.691Z,100999.34
2023-02-02T09:11:44.105Z,100998.69
2023-02-02T09:14:15.905Z,100987.44
2023-02-02T09:16:46.089Z,101000.81
2023-02-02T09:19:16.228Z,101004.19
2023-02-02T09:21:46.372Z,100996.09
2023-02-02T09:24:19.755Z,101004.69
2023-02-02T09:26:50.069Z,101015.00
2023-02-02T09:29:21.397Z,101012.75
2023-02-02T09:31:51.724Z,101030.22
2023-02-02T09:34:22.000Z,101036.03
2023-02-02T09:36:52.430Z,101040.97
2023-02-02T09:39:25.109Z,101037.09
2023-02-02T09:42:29.202Z,101023.16
2023-02-02T09:45:10.817Z,101061.50
2023-02-02T09:47:56.648Z,101053.75
2023-02-02T09:50:45.891Z,101053.81
2023-02-02T09:53:30.140Z,101071.28
2023-02-02T09:56:07.531Z,101043.41
2023-02-02T09:58:43.126Z,101072.25
2023-02-02T10:01:16.172Z,101067.75
2023-02-02T10:03:58.012Z,101042.69
2023-02-02T10:06:36.241Z,101064.03
2023-02-02T10:09:26.604Z,101068.84
2023-02-02T10:12:07.493Z,101066.47
2023-02-02T10:14:46.345Z,101067.28
2023-02-02T10:17:32.150Z,101072.88
2023-02-02T10:20:09.558Z,101066.91
2023-02-02T10:22:39.670Z,101071.19
2023-02-02T10:25:15.351Z,101071.81
2023-02-02T10:27:59.459Z,101050.53
2023-02-02T10:30:39.931Z,101051.91
2023-02-02T10:33:17.422Z,101046.94
2023-02-02T10:35:55.778Z,101041.28
2023-02-02T10:38:36.581Z,101038.91
2023-02-02T10:41:15.998Z,101027.22
2023-02-02T10:44:11.986Z,101022.38
2023-02-02T10:46:46.532Z,101010.56
2023-02-02T10:49:25.157Z,101019.72
2023-02-02T10:52:00.995Z,100995.50
2023-02-02T10:54:57.271Z,101008.59
2023-02-02T10:57:50.346Z,101030.47
2023-02-02T11:00:29.077Z,101030.38
2023-02-02T11:03:00.527Z,101023.44
2023-02-02T11:05:44.818Z,101003.50
2023-02-02T11:08:17.669Z,101006.00
2023-02-02T11:10:48.941Z,101019.41
2023-02-02T11:13:30.454Z,101014.56
2023-02-02T11:16:41.585Z,101017.81
2023-02-02T11:19:34.774Z,101029.03
2023-02-02T11:22:06.100Z,101023.50
2023-02-02T11:24:44.761Z,100994.63
2023-02-02T11:27:18.646Z,101028.28
2023-02-02T11:29:51.132Z,101039.03
2023-02-02T11:32:30.253Z,101033.59
2023-02-02T11:35:33.254Z,101039.38
2023-02-02T11:38:12.655Z,101045.31
2023-02-02T11:40:46.554Z,101038.91
2023-02-02T11:43:22.579Z,100991.97
2023-02-02T11:46:02.367Z,101035.94
2023-02-02T11:48:39.260Z,101030.16
2023-02-02T11:51:11.036Z,101029.13
2023-02-02T11:53:49.542Z,101036.50
2023-02-02T11:56:25.249Z,101008.25
2023-02-02T11:58:59.592Z,101015.63
2023-02-02T12:01:31.368Z,101002.69
2023-02-02T12:04:06.843Z,101006.16
2023-02-02T12:06:40.487Z,101018.53
2023-02-02T12:09:16.724Z,101000.59
2023-02-02T12:11:59.699Z,101014.97
2023-02-02T12:14:37.689Z,101007.75
2023-02-02T12:17:23.783Z,101004.75
2023-02-02T12:20:07.305Z,101002.22
2023-02-02T12:22:58.505Z,100999.91
2023-02-02T12:25:46.002Z,101006.84
2023-02-02T12:28:28.477Z,101003.84
2023-02-02T12:31:06.385Z,100991.84
2023-02-02T12:33:43.746Z,100994.38
2023-02-02T12:36:27.742Z,100989.84
2023-02-02T12:39:13.247Z,100996.69
2023-02-02T12:42:07.183Z,100996.34
2023-02-02T12:44:51.174Z,100967.72
2023-02-02T12:47:28.868Z,100992.03
2023-02-02T12:50:13.515Z,100989.50
2023-02-02T12:52:58.065Z,100993.81
2023-02-02T12:55:39.541Z,101003.97
2023-02-02T12:58:21.795Z,101009.53
2023-02-02T13:01:13.707Z,101014.41
2023-02-02T13:04:16.559Z,101012.66
2023-02-02T13:07:05.403Z,100994.38
2023-02-02T13:09:48.615Z,101022.88
2023-02-02T13:12:22.799Z,101029.38
2023-02-02T13:14:57.993Z,101020.69
2023-02-02T13:17:32.465Z,101023.09
2023-02-02T13:20:06.565Z,101014.06
2023-02-02T13:22:40.531Z,101009.22
2023-02-02T13:25:23.614Z,101014.41
2023-02-02T13:27:54.616Z,101006.88
2023-02-02T13:30:34.331Z,101017.44
2023-02-02T13:33:08.318Z,101036.53
2023-02-02T13:35:45.144Z,101022.63
2023-02-02T13:38:21.910Z,101036.78
2023-02-02T13:40:57.965Z,101003.03
2023-02-02T13:43:38.780Z,101031.31
2023-02-02T13:46:32.502Z,101040.84
2023-02-02T13:49:13.528Z,101036.31
2023-02-02T13:52:01.643Z,101043.03
2023-02-02T13:55:13.514Z,101047.44
2023-02-02T13:58:19.851Z,101053.09
2023-02-02T14:00:53.136Z,101022.97
2023-02-02T14:03:33.896Z,101053.91
2023-02-02T14:06:13.744Z,101048.59
2023-02-02T14:08:50.996Z,101052.28
2023-02-02T14:11:25.989Z,101027.22
2023-02-02T14:14:13.966Z,101053.31
2023-02-02T14:16:53.484Z,101049.06
2023-02-02T14:19:52.226Z,101049.75
2023-02-02T14:22:38.833Z,101062.25
2023-02-02T14:25:41.737Z,101045.78
2023-02-02T14:28:14.072Z,101040.94
2023-02-02T14:30:46.794Z,101040.47
2023-02-02T14:33:47.780Z,101039.66
2023-02-02T14:36:20.719Z,101030.28
2023-02-02T14:39:03.628Z,101045.31
2023-02-02T14:42:01.037Z,101051.47
2023-02-02T14:44:31.841Z,101054.38
2023-02-02T14:47:04.799Z,101051.13
2023-02-02T14:49:38.587Z,101052.63
2023-02-02T14:52:23.211Z,101052.41
2023-02-02T14:54:53.346Z,101043.94
2023-02-02T14:57:28.468Z,101050.97
2023-02-02T15:00:01.596Z,101031.38
2023-02-02T15:02:39.572Z,101041.22
2023-02-02T15:05:41.924Z,101054.09
2023-02-02T15:08:23.286Z,101063.88
2023-02-02T15:11:25.555Z,101062.03
2023-02-02T15:14:15.970Z,101056.56
2023-02-02T15:16:47.181Z,101049.56
2023-02-02T15:19:28.970Z,101062.97
2023-02-02T15:22:02.414Z,101060.91
2023-02-02T15:24:36.866Z,101050.44
2023-02-02T15:27:09.025Z,101074.38
2023-02-02T15:29:45.556Z,101087.53
2023-02-02T15:32:20.623Z,101072.34
2023-02-02T15:34:55.967Z,101073.38
2023-02-02T15:37:32.047Z,101066.28
2023-02-02T15:40:05.627Z,101079.38
2023-02-02T15:42:55.912Z,101084.19
2023-02-02T15:45:35.034Z,101085.00
2023-02-02T15:48:12.215Z,101087.06
2023-02-02T15:50:48.689Z,101092.38
2023-02-02T15:53:23.323Z,101093.78
2023-02-02T15:55:53.914Z,101097.28
2023-02-02T15:58:30.615Z,101095.41
2023-02-02T16:01:04.178Z,101095.53
2023-02-02T16:03:41.405Z,101085.34
2023-02-02T16:06:14.659Z,101098.66
2023-02-02T16:08:45.123Z,101095.09
2023-02-02T16:11:18.069Z,101105.31
2023-02-02T16:14:01.957Z,101093.19
2023-02-02T16:16:35.476Z,101111.50
2023-02-02T16:19:15.034Z,101104.56
2023-02-02T16:21:53.846Z,101111.50
2023-02-02T16:24:29.115Z,101116.00
2023-02-02T16:27:02.386Z,101122.59
2023-02-02T16:29:33.088Z,101120.53
2023-02-02T16:32:03.465Z,101128.81
2023-02-02T16:34:49.057Z,101137.84
2023-02-02T16:37:28.436Z,101138.50
2023-02-02T16:39:59.515Z,101117.06
2023-02-02T16:42:31.799Z,101148.19
2023-02-02T16:45:03.007Z,101128.75
2023-02-02T16:47:41.671Z,101155.78
2023-02-02T16:50:29.593Z,101157.28
2023-02-02T16:53:05.482Z,101153.94
2023-02-02T16:55:50.076Z,101156.00
2023-02-02T16:58:24.421Z,101121.00
2023-02-02T17:01:14.097Z,101154.31
2023-02-02T17:03:52.697Z,101140.50
2023-02-02T17:06:41.830Z,101157.19
2023-02-02T17:09:34.382Z,101149.81
2023-02-02T17:12:09.367Z,101142.28
2023-02-02T17:14:54.952Z,101161.91
2023-02-02T17:17:25.194Z,101151.72
2023-02-02T17:19:55.508Z,101156.47
2023-02-02T17:22:28.090Z,101165.03
2023-02-02T17:25:02.014Z,101148.19
2023-02-02T17:27:34.694Z,101165.25
2023-02-02T17:30:07.374Z,101169.78
2023-02-02T17:32:37.705Z,101166.88
2023-02-02T17:35:16.879Z,101140.66
2023-02-02T17:37:47.352Z,101159.13
2023-02-02T17:40:21.503Z,101158.88
2023-02-02T17:42:53.925Z,101177.44
2023-02-02T17:45:26.672Z,101171.31
2023-02-02T17:47:56.967Z,101170.03
2023-02-02T17:50:27.441Z,101162.00
2023-02-02T17:52:57.833Z,101171.38
2023-02-02T17:55:33.719Z,101175.66
2023-02-02T17:58:03.985Z,101174.69
2023-02-02T18:00:34.147Z,101160.50
2023-02-02T18:03:13.048Z,101163.16
2023-02-02T18:05:43.959Z,101174.84
2023-02-02T18:08:15.221Z,101172.78
2023-02-02T18:10:48.021Z,101172.19
2023-02-02T18:13:19.743Z,101170.78
2023-02-02T18:15:50.499Z,101151.56
2023-02-02T18:18:20.526Z,101168.56
2023-02-02T18:20:53.206Z,101180.75
2023-02-02T18:23:24.721Z,101156.38
2023-02-02T18:25:57.551Z,101186.59
2023-02-02T18:28:27.555Z,101193.56
2023-02-02T18:30:57.705Z,101194.38
2023-02-02T18:33:28.089Z,101191.06
2023-02-02T18:35:58.455Z,101192.66
2023-02-02T18:38:28.658Z,101193.25
2023-02-02T18:41:03.927Z,101186.69
2023-02-02T18:43:34.103Z,101191.72
2023-02-02T18:46:06.637Z,101132.50
2023-02-02T18:48:36.819Z,101180.53
2023-02-02T18:51:08.473Z,101189.34
2023-02-02T18:53:38.739Z,101166.34
2023-02-02T18:56:13.833Z,101195.41
2023-02-02T18:58:44.583Z,101184.97
2023-02-02T19:01:16.854Z,101200.69
2023-02-02T19:03:51.853Z,101191.81
2023-02-02T19:06:35.151Z,101192.69
2023-02-02T19:09:10.557Z,101198.28
2023-02-02T19:11:48.619Z,101199.25
2023-02-02T19:14:20.749Z,101205.63
2023-02-02T19:16:52.720Z,101209.72
2023-02-02T19:19:29.292Z,101207.03
2023-02-02T19:22:01.003Z,101212.16
2023-02-02T19:24:42.707Z,101194.38
2023-02-02T19:27:20.176Z,101216.38
2023-02-02T19:29:52.909Z,101205.75
2023-02-02T19:32:25.182Z,101204.16
2023-02-02T19:34:57.371Z,101193.34
2023-02-02T19:37:29.531Z,101209.28
2023-02-02T19:40:17.719Z,101208.09
2023-02-02T19:42:54.396Z,101215.28
2023-02-02T19:45:28.416Z,101203.25
2023-02-02T19:47:59.943Z,101224.44
2023-02-02T19:50:32.396Z,101235.00
2023-02-02T19:53:06.561Z,101223.22
2023-02-02T19:55:39.442Z,101247.88
2023-02-02T19:58:19.914Z,101263.41
2023-02-02T20:00:51.265Z,101266.50
2023-02-02T20:03:23.843Z,101257.31
2023-02-02T20:05:55.838Z,101266.91
2023-02-02T20:08:30.110Z,101271.63
2023-02-02T20:11:03.836Z,101260.63
2023-02-02T20:13:46.794Z,101264.25
2023-02-02T20:16:21.203Z,101274.06
2023-02-02T20:18:53.985Z,101276.22
2023-02-02T20:21:31.391Z,101277.47
2023-02-02T20:24:01.646Z,101292.19
2023-02-02T20:26:37.093Z,101280.81
2023-02-02T20:29:20.799Z,101290.78
2023-02-02T20:31:55.837Z,101291.44
2023-02-02T20:34:29.973Z,101294.72
2023-02-02T20:37:02.820Z,101296.81
2023-02-02T20:39:37.377Z,101291.09
2023-02-02T20:42:07.935Z,101295.16
2023-02-02T20:44:40.609Z,101282.94
2023-02-02T20:47:10.971Z,101305.16
2023-02-02T20:49:41.658Z,101272.75
2023-02-02T20:52:18.360Z,101295.59
2023-02-02T20:54:48.408Z,101304.97
2023-02-02T20:57:18.903Z,101307.06
2023-02-02T20:59:57.918Z,101313.63
2023-02-02T21:02:29.902Z,101310.28
2023-02-02T21:05:01.500Z,101307.06
2023-02-02T21:07:32.680Z,101263.03
2023-02-02T21:10:02.697Z,101313.34
2023-02-02T21:12:33.166Z,101324.97
2023-02-02T21:15:06.675Z,101322.13
2023-02-02T21:17:36.710Z,101319.09
2023-02-02T21:20:07.131Z,101344.19
2023-02-02T21:22:37.361Z,101343.56
2023-02-02T21:25:07.741Z,101350.53
2023-02-02T21:27:41.208Z,101339.53
2023-02-02T21:30:16.115Z,101359.72
2023-02-02T21:32:46.098Z,101351.75
2023-02-02T21:35:16.088Z,101345.47
2023-02-02T21:37:50.578Z,101356.09
2023-02-02T21:40:28.972Z,101362.84
2023-02-02T21:43:01.867Z,101373.97
2023-02-02T21:45:38.881Z,101371.69
2023-02-02T21:48:10.751Z,101378.25
2023-02-02T21:50:44.546Z,101379.06
2023-02-02T21:53:22.009Z,101386.81
2023-02-02T21:55:55.974Z,101391.75
2023-02-02T21:58:28.441Z,101390.91
2023-02-02T22:01:05.552Z,101389.13
2023-02-02T22:03:38.062Z,101382.00
2023-02-02T22:06:36.258Z,101395.47
2023-02-02T22:09:18.343Z,101408.56
2023-02-02T22:11:52.210Z,101408.78
2023-02-02T22:14:25.176Z,101404.09
2023-02-02T22:17:00.831Z,101406.53
2023-02-02T22:19:36.747Z,101415.13
2023-02-02T22:22:16.988Z,101388.19
2023-02-02T22:24:49.309Z,101419.59
2023-02-02T22:27:26.117Z,101421.06
2023-02-02T22:30:00.487Z,101427.38
2023-02-02T22:32:33.328Z,101429.66
2023-02-02T22:35:03.317Z,101423.72
2023-02-02T22:37:33.545Z,101405.56
2023-02-02T22:40:03.610Z,101442.09
2023-02-02T22:42:33.673Z,101436.38
2023-02-02T22:45:03.673Z,101421.25
2023-02-02T22:47:36.329Z,101441.28
2023-02-02T22:50:06.644Z,101434.31
2023-02-02T22:52:36.725Z,101442.91
2023-02-02T22:55:06.927Z,101433.31
2023-02-02T22:57:37.256Z,101450.44
2023-02-02T23:00:10.680Z,101450.25
2023-02-02T23:02:44.335Z,101443.72
2023-02-02T23:05:16.860Z,101445.34
2023-02-02T23:07:48.972Z,101447.78
2023-02-02T23:10:21.113Z,101469.41
2023-02-02T23:12:53.669Z,101452.03
2023-02-02T23:15:24.042Z,101458.34
2023-02-02T23:17:57.416Z,101440.00
2023-02-02T23:20:28.093Z,101445.69
2023-02-02T23:22:58.056Z,101453.44
2023-02-02T23:25:28.341Z,101453.03
2023-02-02T23:27:58.482Z,101459.09
2023-02-02T23:30:28.841Z,101456.00
2023-02-02T23:33:01.573Z,101462.72
2023-02-02T23:35:31.622Z,101468.66
2023-02-02T23:38:01.680Z,101466.41
2023-02-02T23:40:31.849Z,101474.16
2023-02-02T23:43:01.939Z,101486.00
2023-02-02T23:45:32.263Z,101480.06
2023-02-02T23:48:05.025Z,101485.38
2023-02-02T23:50:38.062Z,101481.91
2023-02-02T23:53:08.500Z,101494.75
2023-02-02T23:55:39.335Z,101485.38
2023-02-02T23:58:09.606Z,101485.16
